Time,TemperatureF,DewpointF,PressureIn,WindDirection,WindDirectionDegrees,WindSpeedMPH,WindSpeedGustMPH,Humidity,HourlyPrecipIn,Conditions,Clouds,dailyrainin,SoftwareType,DateUTC
2013-03-30 00:07:00,27.7,25.1,30.11,West,270,0.0,-999.0,90,-99.99,,,0.00,Acu-Link.com,2013-03-30 04:07:00,
2013-03-30 00:23:00,27.1,23.0,30.11,West,270,0.0,-999.0,84,-99.99,,,0.00,Acu-Link.com,2013-03-30 04:23:00,
2013-03-30 00:38:00,26.4,21.4,30.10,West,270,0.0,-999.0,81,-99.99,,,0.00,Acu-Link.com,2013-03-30 04:38:00,
2013-03-30 00:53:00,26.1,20.5,30.10,West,270,0.0,-999.0,79,-99.99,,,0.00,Acu-Link.com,2013-03-30 04:53:00,
2013-03-30 01:08:00,25.5,18.4,30.10,West,270,0.0,-999.0,74,-99.99,,,0.00,Acu-Link.com,2013-03-30 05:08:00,
2013-03-30 01:23:00,24.8,15.8,30.10,West,270,0.0,-999.0,68,-99.99,,,0.00,Acu-Link.com,2013-03-30 05:23:00,
2013-03-30 01:39:00,24.6,12.0,30.10,West,270,0.0,-999.0,58,-99.99,,,0.00,Acu-Link.com,2013-03-30 05:39:00,
2013-03-30 01:54:00,24.6,10.4,30.10,West,270,0.0,-999.0,54,-99.99,,,0.00,Acu-Link.com,2013-03-30 05:54:00,
2013-03-30 02:09:00,23.9,6.6,30.10,West,270,0.0,-999.0,47,-99.99,,,0.00,Acu-Link.com,2013-03-30 06:09:00,
2013-03-30 02:24:00,23.7,1.3,30.10,West,270,0.0,-999.0,37,-99.99,,,0.00,Acu-Link.com,2013-03-30 06:24:00,
2013-03-30 02:39:00,23.4,-2.1,30.10,West,270,0.0,-999.0,32,-99.99,,,0.00,Acu-Link.com,2013-03-30 06:39:00,
2013-03-30 02:55:00,23.2,-6.6,30.10,West,270,0.0,-999.0,26,-99.99,,,0.00,Acu-Link.com,2013-03-30 06:55:00,
2013-03-30 03:10:00,22.8,-6.1,30.10,West,270,0.0,-999.0,27,-99.99,,,0.00,Acu-Link.com,2013-03-30 07:10:00,
2013-03-30 03:25:00,22.8,-7.7,30.10,WNW,292,0.0,-999.0,25,-99.99,,,0.00,Acu-Link.com,2013-03-30 07:25:00,
2013-03-30 03:40:00,22.3,-3.7,30.10,West,270,0.0,-999.0,31,-99.99,,,0.00,Acu-Link.com,2013-03-30 07:40:00,
2013-03-30 03:56:00,21.9,-6.1,30.10,West,270,0.0,-999.0,28,-99.99,,,0.00,Acu-Link.com,2013-03-30 07:56:00,
2013-03-30 04:11:00,21.7,-53.9,30.10,WNW,292,0.0,-999.0,2,-99.99,,,0.00,Acu-Link.com,2013-03-30 08:11:00,
2013-03-30 04:26:00,21.6,21.3,30.09,West,270,0.0,-999.0,99,-99.99,,,0.00,Acu-Link.com,2013-03-30 08:26:00,
2013-03-30 04:42:00,21.4,21.1,30.09,WNW,292,0.0,-999.0,99,-99.99,,,0.00,Acu-Link.com,2013-03-30 08:42:00,
2013-03-30 04:57:00,21.2,21.0,30.09,West,270,0.0,-999.0,99,-99.99,,,0.00,Acu-Link.com,2013-03-30 08:57:00,
2013-03-30 05:12:00,20.8,-27.0,30.09,West,270,0.0,-999.0,10,-99.99,,,0.00,Acu-Link.com,2013-03-30 09:12:00,
2013-03-30 05:27:00,20.7,20.4,30.09,WNW,292,0.0,-999.0,99,-99.99,,,0.00,Acu-Link.com,2013-03-30 09:27:00,
2013-03-30 05:42:00,20.5,-12.2,30.09,WNW,292,0.0,-999.0,22,-99.99,,,0.00,Acu-Link.com,2013-03-30 09:42:00,
2013-03-30 05:58:00,20.3,20.1,30.09,WNW,292,0.0,-999.0,99,-99.99,,,0.00,Acu-Link.com,2013-03-30 09:58:00,
2013-03-30 06:13:00,20.1,19.9,30.09,West,270,0.0,-999.0,99,-99.99,,,0.00,Acu-Link.com,2013-03-30 10:13:00,
2013-03-30 06:28:00,20.1,19.9,30.09,WNW,292,0.0,-999.0,99,-99.99,,,0.00,Acu-Link.com,2013-03-30 10:28:00,
2013-03-30 06:43:00,19.9,19.7,30.10,West,270,0.0,-999.0,99,-99.99,,,0.00,Acu-Link.com,2013-03-30 10:43:00,
2013-03-30 06:58:00,19.8,19.5,30.09,WNW,292,0.0,-999.0,99,-99.99,,,0.00,Acu-Link.com,2013-03-30 10:58:00,
2013-03-30 07:14:00,19.6,-14.9,30.09,WNW,292,0.0,-999.0,20,-99.99,,,0.00,Acu-Link.com,2013-03-30 11:14:00,
2013-03-30 07:29:00,19.6,-11.3,30.10,WNW,292,0.0,-999.0,24,-99.99,,,0.00,Acu-Link.com,2013-03-30 11:29:00,
2013-03-30 07:44:00,19.8,-5.3,30.10,West,270,0.0,-999.0,32,-99.99,,,0.00,Acu-Link.com,2013-03-30 11:44:00,
2013-03-30 07:59:00,21.9,-2.1,30.10,WNW,292,0.0,-999.0,34,-99.99,,,0.00,Acu-Link.com,2013-03-30 11:59:00,
2013-03-30 08:14:00,24.1,13.3,30.10,West,270,0.0,-999.0,63,-99.99,,,0.00,Acu-Link.com,2013-03-30 12:14:00,
2013-03-30 08:30:00,26.8,10.7,30.11,West,270,0.0,-999.0,50,-99.99,,,0.00,Acu-Link.com,2013-03-30 12:30:00,
2013-03-30 08:45:00,32.2,22.5,30.10,West,270,0.0,-999.0,67,-99.99,,,0.00,Acu-Link.com,2013-03-30 12:45:00,
2013-03-30 09:00:00,40.8,37.5,30.10,SE,135,0.0,-999.0,88,-99.99,,,0.00,Acu-Link.com,2013-03-30 13:00:00,
2013-03-30 09:15:00,43.9,37.8,30.10,West,270,0.0,-999.0,79,-99.99,,,0.00,Acu-Link.com,2013-03-30 13:15:00,
2013-03-30 09:30:00,46.8,38.2,30.10,SW,225,0.0,-999.0,72,-99.99,,,0.00,Acu-Link.com,2013-03-30 13:30:00,
2013-03-30 09:46:00,50.0,37.9,30.08,NNW,337,0.0,-999.0,63,-99.99,,,0.00,Acu-Link.com,2013-03-30 13:46:00,
2013-03-30 10:16:00,54.0,36.2,30.07,ESE,112,0.0,-999.0,51,-99.99,,,0.00,Acu-Link.com,2013-03-30 14:16:00,
2013-03-30 10:46:00,55.6,35.1,30.06,NNW,337,4.3,-999.0,46,-99.99,,,0.00,Acu-Link.com,2013-03-30 14:46:00,
2013-03-30 11:02:00,55.8,31.8,30.06,NNW,337,0.0,-999.0,40,-99.99,,,0.00,Acu-Link.com,2013-03-30 15:02:00,
2013-03-30 11:17:00,55.4,31.5,30.05,SW,225,3.8,-999.0,40,-99.99,,,0.00,Acu-Link.com,2013-03-30 15:17:00,
2013-03-30 11:32:00,57.0,32.9,30.05,South,180,5.1,-999.0,40,-99.99,,,0.00,Acu-Link.com,2013-03-30 15:32:00,
2013-03-30 11:47:00,58.3,32.8,30.05,WNW,292,1.1,-999.0,38,-99.99,,,0.00,Acu-Link.com,2013-03-30 15:47:00,
2013-03-30 12:03:00,57.6,30.8,30.04,SSW,202,6.7,-999.0,36,-99.99,,,0.00,Acu-Link.com,2013-03-30 16:03:00,
2013-03-30 12:18:00,58.3,32.1,30.04,SSE,157,4.7,-999.0,37,-99.99,,,0.00,Acu-Link.com,2013-03-30 16:18:00,
2013-03-30 12:33:00,58.6,29.6,30.03,South,180,2.7,-999.0,33,-99.99,,,0.00,Acu-Link.com,2013-03-30 16:33:00,
2013-03-30 12:48:00,61.2,31.1,30.03,SW,225,5.1,-999.0,32,-99.99,,,0.00,Acu-Link.com,2013-03-30 16:48:00,
2013-03-30 13:03:00,59.4,30.3,30.03,SSW,202,4.3,-999.0,33,-99.99,,,0.00,Acu-Link.com,2013-03-30 17:03:00,
2013-03-30 13:19:00,60.4,31.2,30.02,West,270,2.7,-999.0,33,-99.99,,,0.00,Acu-Link.com,2013-03-30 17:19:00,
2013-03-30 13:34:00,60.8,32.3,30.01,South,180,3.1,-999.0,34,-99.99,,,0.00,Acu-Link.com,2013-03-30 17:34:00,
2013-03-30 13:49:00,62.2,31.2,30.01,WSW,247,3.8,-999.0,31,-99.99,,,0.00,Acu-Link.com,2013-03-30 17:49:00,
2013-03-30 14:04:00,63.3,29.7,30.00,SSE,157,0.0,-999.0,28,-99.99,,,0.00,Acu-Link.com,2013-03-30 18:04:00,
2013-03-30 14:19:00,62.2,29.6,29.99,SW,225,3.8,-999.0,29,-99.99,,,0.00,Acu-Link.com,2013-03-30 18:19:00,
2013-03-30 14:35:00,63.3,27.9,29.98,South,180,5.1,-999.0,26,-99.99,,,0.00,Acu-Link.com,2013-03-30 18:35:00,
2013-03-30 14:50:00,64.8,30.9,29.97,West,270,0.0,-999.0,28,-99.99,,,0.00,Acu-Link.com,2013-03-30 18:50:00,
2013-03-30 15:05:00,65.8,30.0,29.97,NW,315,3.1,-999.0,26,-99.99,,,0.00,Acu-Link.com,2013-03-30 19:05:00,
2013-03-30 15:20:00,65.5,29.7,29.97,WSW,247,3.8,-999.0,26,-99.99,,,0.00,Acu-Link.com,2013-03-30 19:20:00,
2013-03-30 15:35:00,61.9,30.9,29.95,SSE,157,6.3,-999.0,31,-99.99,,,0.00,Acu-Link.com,2013-03-30 19:35:00,
2013-03-30 15:51:00,64.4,32.3,29.94,South,180,2.7,-999.0,30,-99.99,,,0.00,Acu-Link.com,2013-03-30 19:51:00,
2013-03-30 16:21:00,62.8,31.7,29.93,SSE,157,2.2,-999.0,31,-99.99,,,0.00,Acu-Link.com,2013-03-30 20:21:00,
2013-03-30 16:51:00,61.7,32.3,29.92,SW,225,6.3,-999.0,33,-99.99,,,0.00,Acu-Link.com,2013-03-30 20:51:00,
2013-03-30 17:07:00,60.3,32.5,29.91,WSW,247,0.0,-999.0,35,-99.99,,,0.00,Acu-Link.com,2013-03-30 21:07:00,
2013-03-30 17:22:00,58.5,33.6,29.91,SSW,202,3.8,-999.0,39,-99.99,,,0.00,Acu-Link.com,2013-03-30 21:22:00,
2013-03-30 17:37:00,58.3,33.4,29.90,SSW,202,3.8,-999.0,39,-99.99,,,0.00,Acu-Link.com,2013-03-30 21:37:00,
2013-03-30 17:52:00,56.5,33.1,29.89,SSE,157,5.1,-999.0,41,-99.99,,,0.00,Acu-Link.com,2013-03-30 21:52:00,
2013-03-30 18:07:00,55.8,34.2,29.89,SSE,157,6.7,-999.0,44,-99.99,,,0.00,Acu-Link.com,2013-03-30 22:07:00,
2013-03-30 18:23:00,55.0,34.1,29.88,SSE,157,1.1,-999.0,45,-99.99,,,0.00,Acu-Link.com,2013-03-30 22:23:00,
2013-03-30 18:38:00,54.7,33.8,29.88,South,180,2.2,-999.0,45,-99.99,,,0.00,Acu-Link.com,2013-03-30 22:38:00,
2013-03-30 18:53:00,54.0,34.2,29.88,SE,135,4.7,-999.0,47,-99.99,,,0.00,Acu-Link.com,2013-03-30 22:53:00,
2013-03-30 19:08:00,53.4,34.2,29.88,SSE,157,5.1,-999.0,48,-99.99,,,0.00,Acu-Link.com,2013-03-30 23:08:00,
2013-03-30 19:24:00,52.5,33.9,29.88,ESE,112,3.8,-999.0,49,-99.99,,,0.00,Acu-Link.com,2013-03-30 23:24:00,
2013-03-30 19:39:00,51.1,34.1,29.88,SSW,202,4.3,-999.0,52,-99.99,,,0.00,Acu-Link.com,2013-03-30 23:39:00,
2013-03-30 19:54:00,49.6,34.1,29.87,South,180,2.2,-999.0,55,-99.99,,,0.00,Acu-Link.com,2013-03-30 23:54:00,
2013-03-30 20:09:00,48.7,33.8,29.86,South,180,1.6,-999.0,56,-99.99,,,0.00,Acu-Link.com,2013-03-31 00:09:00,
2013-03-30 20:24:00,47.7,34.0,29.86,SSE,157,1.6,-999.0,59,-99.99,,,0.00,Acu-Link.com,2013-03-31 00:24:00,
2013-03-30 20:40:00,46.6,34.3,29.86,SE,135,3.8,-999.0,62,-99.99,,,0.00,Acu-Link.com,2013-03-31 00:40:00,
2013-03-30 20:55:00,46.2,34.3,29.86,SSE,157,3.1,-999.0,63,-99.99,,,0.00,Acu-Link.com,2013-03-31 00:55:00,
2013-03-30 21:10:00,45.9,34.8,29.86,SSE,157,0.0,-999.0,65,-99.99,,,0.00,Acu-Link.com,2013-03-31 01:10:00,
2013-03-30 21:25:00,45.7,35.7,29.86,SSE,157,2.2,-999.0,68,-99.99,,,0.00,Acu-Link.com,2013-03-31 01:25:00,
2013-03-30 21:40:00,45.3,36.5,29.85,ESE,112,4.7,-999.0,71,-99.99,,,0.00,Acu-Link.com,2013-03-31 01:40:00,
2013-03-30 21:56:00,45.3,36.8,29.85,SSE,157,1.1,-999.0,72,-99.99,,,0.00,Acu-Link.com,2013-03-31 01:56:00,
2013-03-30 22:26:00,44.1,37.0,29.84,SE,135,1.1,-999.0,76,-99.99,,,0.00,Acu-Link.com,2013-03-31 02:26:00,
2013-03-30 22:57:00,41.4,36.0,29.83,West,270,0.0,-999.0,81,-99.99,,,0.00,Acu-Link.com,2013-03-31 02:57:00,
2013-03-30 23:12:00,39.7,35.0,29.82,WNW,292,0.0,-999.0,83,-99.99,,,0.00,Acu-Link.com,2013-03-31 03:12:00,
2013-03-30 23:27:00,38.1,33.7,29.82,West,270,0.0,-999.0,84,-99.99,,,0.00,Acu-Link.com,2013-03-31 03:27:00,
2013-03-30 23:42:00,36.9,33.1,29.81,West,270,0.0,-999.0,86,-99.99,,,0.00,Acu-Link.com,2013-03-31 03:42:00,
2013-03-30 23:57:00,35.6,32.1,29.80,NNW,337,0.0,-999.0,87,-99.99,,,0.00,Acu-Link.com,2013-03-31 03:57:00,